CYVR - Vancouver Intl

Pirep is a free, collaborative database of all public and private airports located within the United States. All pilots are welcome to contribute, edit, and improve any airport they have local knowledge about, no registration required.
Are you familiar with this airport? Help out other pilots by adding your local knowledge.
Uploaded photos will be licensed under a CC BY-SA 4.0 license. Please only upload photos you have the rights to use.
Tags
Public
Undocu­mented
METAR / TAF
Webcam
Edit Tags
Food
Camping
Lodging
Car Rental
Bicycles
Swimming
Golfing
Fishing
Hot Springs
Museum
Flying Clubs
Airpark
Upcoming Events
No upcoming events. Is anything happening here soon?
*
*
*

Where exactly on/near the airport is this event taking place?

Is there a webpage with more information for this event?

Who should be contacted for more information?

What is this event all about?

Repeat every
Description
Transient Parking
Fuel Location
Landing & Tie-down Fees
Crew Car Availability
Flying Clubs
WiFi Access
Airport Statistics
Location: Vancouver, CN
Elevation: 14ft
Activation date: Apr 2005
Fuel: 100LL, A, A1 (prices)
Runway 08R/26L: 11,500ft
Runway 08L/26R: 9,940ft
Runway 12/30: 7,300ft
Runway 13/31: 7,300ft
Access: Open to the public
This airport is privately owned but open to the public.
Current Weather — VFR
  • Weather data is strictly informational and not for flight planning purposes.
  • METAR
    2024-05-28 14:00:00 PDT
    Ceiling Wind Temperature Dewpoint Weather Visbility
    5,500ft 140° @ 8kt 55°F 53°F N/A 8SM
    Clouds: Few @ 1,000ft, Overcast @ 5,500ft
    Raw: CYVR 282100Z 14008KT 8SM FEW010 OVC055 13/12 A3007 RMK SC2SC6 SLP184
  • TAF
    2024-05-28 14:00:00 PDT – 2024-05-28 15:00:00 PDT
    Ceiling Wind Weather Visbility
    6,000ft 150° @ 7kt Light rain 6SM
    Clouds: Scattered @ 2,000ft, Broken @ 6,000ft
    Raw: TAF CYVR 282041Z 2821/2924 15007KT P6SM -RA SCT020 BKN060 TEMPO 2821/2822 4SM -RA BR SCT006 BKN020 OVC060 FM282200 16008KT P6SM SCT020 BKN050 BECMG 2902/2904 25010KT FM291400 22010KT P6SM BKN030 TEMPO 2914/2919 P6SM -SHRA BKN020 FM291900 20008KT P6SM SCT050 RMK NXT FCST BY 290000Z
  • TAF
    2024-05-28 14:00:00 PDT – 2024-05-28 15:00:00 PDT
    Ceiling Wind Weather Visbility
    2,000ft ° @ kt Light rain, mist 4SM
    Clouds: Scattered @ 600ft, Broken @ 2,000ft, Overcast @ 6,000ft
    Raw: TAF CYVR 282041Z 2821/2924 15007KT P6SM -RA SCT020 BKN060 TEMPO 2821/2822 4SM -RA BR SCT006 BKN020 OVC060 FM282200 16008KT P6SM SCT020 BKN050 BECMG 2902/2904 25010KT FM291400 22010KT P6SM BKN030 TEMPO 2914/2919 P6SM -SHRA BKN020 FM291900 20008KT P6SM SCT050 RMK NXT FCST BY 290000Z
  • TAF
    2024-05-28 15:00:00 PDT – 2024-05-28 19:00:00 PDT
    Ceiling Wind Weather Visbility
    5,000ft 160° @ 8kt N/A 6SM
    Clouds: Scattered @ 2,000ft, Broken @ 5,000ft
    Raw: TAF CYVR 282041Z 2821/2924 15007KT P6SM -RA SCT020 BKN060 TEMPO 2821/2822 4SM -RA BR SCT006 BKN020 OVC060 FM282200 16008KT P6SM SCT020 BKN050 BECMG 2902/2904 25010KT FM291400 22010KT P6SM BKN030 TEMPO 2914/2919 P6SM -SHRA BKN020 FM291900 20008KT P6SM SCT050 RMK NXT FCST BY 290000Z
  • TAF
    2024-05-28 19:00:00 PDT – 2024-05-29 07:00:00 PDT
    Ceiling Wind Weather Visbility
    5,000ft 250° @ 10kt N/A 6SM
    Clouds: Scattered @ 2,000ft, Broken @ 5,000ft
    Raw: TAF CYVR 282041Z 2821/2924 15007KT P6SM -RA SCT020 BKN060 TEMPO 2821/2822 4SM -RA BR SCT006 BKN020 OVC060 FM282200 16008KT P6SM SCT020 BKN050 BECMG 2902/2904 25010KT FM291400 22010KT P6SM BKN030 TEMPO 2914/2919 P6SM -SHRA BKN020 FM291900 20008KT P6SM SCT050 RMK NXT FCST BY 290000Z
  • TAF
    2024-05-29 07:00:00 PDT – 2024-05-29 12:00:00 PDT
    Ceiling Wind Weather Visbility
    3,000ft 220° @ 10kt N/A 6SM
    Clouds: Broken @ 3,000ft
    Raw: TAF CYVR 282041Z 2821/2924 15007KT P6SM -RA SCT020 BKN060 TEMPO 2821/2822 4SM -RA BR SCT006 BKN020 OVC060 FM282200 16008KT P6SM SCT020 BKN050 BECMG 2902/2904 25010KT FM291400 22010KT P6SM BKN030 TEMPO 2914/2919 P6SM -SHRA BKN020 FM291900 20008KT P6SM SCT050 RMK NXT FCST BY 290000Z
  • TAF
    2024-05-29 07:00:00 PDT – 2024-05-29 12:00:00 PDT
    Ceiling Wind Weather Visbility
    2,000ft ° @ kt Light rain showers 6SM
    Clouds: Broken @ 2,000ft
    Raw: TAF CYVR 282041Z 2821/2924 15007KT P6SM -RA SCT020 BKN060 TEMPO 2821/2822 4SM -RA BR SCT006 BKN020 OVC060 FM282200 16008KT P6SM SCT020 BKN050 BECMG 2902/2904 25010KT FM291400 22010KT P6SM BKN030 TEMPO 2914/2919 P6SM -SHRA BKN020 FM291900 20008KT P6SM SCT050 RMK NXT FCST BY 290000Z
  • TAF
    2024-05-29 12:00:00 PDT – 2024-05-29 17:00:00 PDT
    Ceiling Wind Weather Visbility
    Sky clear 200° @ 8kt N/A 6SM
    Clouds: Scattered @ 5,000ft
    Raw: TAF CYVR 282041Z 2821/2924 15007KT P6SM -RA SCT020 BKN060 TEMPO 2821/2822 4SM -RA BR SCT006 BKN020 OVC060 FM282200 16008KT P6SM SCT020 BKN050 BECMG 2902/2904 25010KT FM291400 22010KT P6SM BKN030 TEMPO 2914/2919 P6SM -SHRA BKN020 FM291900 20008KT P6SM SCT050 RMK NXT FCST BY 290000Z
Click/tap to add an annotation marker to the map
Direct links to live image URLs will be displayed inline on this page. URLs to separate webpages will be linked to.
URL:
Direct links to live image URLs will be displayed inline on this page. URLs to separate webpages will be linked to.
URL:
Remarks
  • Migratory birds invof arpt frm approx oct-apr.
Comments
Leave a comment What was your experience like at this airport?